Time;durP1;ratioP1;P1;durP2;ratioP2;P2;SDS_P1;SDS_P2;PMS_P1;PMS_P2;Temp;Humidity;BMP_temperature;BMP_pressure;BME280_temperature;BME280_humidity;BME280_pressure;Samples;Min_cycle;Max_cycle;Signal;HPM_P1;HPM_P2
2021/12/05 00:23:25;;;;;;;;;;;;;;;3.94;78.61;98331.75;4967956;28;19929;-85
2021/12/05 00:25:53;;;;;;;;;;;;;;;4.02;78.73;98334.06;4988972;28;19984;-87
2021/12/05 00:59:33;;;;;;;;;;;;;;;4.64;82.55;98304.44;4965714;28;19973;-86
2021/12/05 01:13:31;;;;;;;;;;;;;;;4.71;86.00;98297.16;4964641;28;20373;-85
2021/12/05 01:15:29;;;;;;;;;;;;;;;4.68;86.50;98297.28;4962866;28;20377;-86
2021/12/05 01:20:25;;;;;;;;;;;;;;;4.63;86.98;98300.13;4965333;28;19922;-86
2021/12/05 01:23:00;;;;;;;;;;;;;;;4.55;87.02;98292.56;4965530;28;20368;-87
2021/12/05 01:28:05;;;;;;;;;;;;;;;4.39;88.04;98302.00;4964255;28;19929;-87
2021/12/05 01:30:49;;;;;;;;;;;;;;;4.29;89.06;98306.78;4965316;28;20406;-87
2021/12/05 01:38:23;;;;;;;;;;;;;;;4.24;92.61;98292.13;4965389;28;19973;-86
2021/12/05 01:41:28;;;;;;;;;;;;;;;4.33;94.58;98294.38;4987594;28;19961;-86
2021/12/05 01:46:56;;;;;;;;;;;;;;;4.51;100.00;98288.34;4966221;28;19926;-87
2021/12/05 01:54:36;;;;;;;;;;;;;;;4.93;100.00;98264.72;4965250;28;19933;-87
2021/12/05 02:39:43;;;;;;;;;;;;;;;5.92;100.00;98211.97;4964301;28;19929;-86
2021/12/05 02:42:12;;;;;;;;;;;;;;;6.07;100.00;98209.53;4961481;28;20453;-86
2021/12/05 02:44:39;;;;;;;;;;;;;;;6.13;100.00;98204.00;4965095;28;19922;-86
2021/12/05 04:16:16;;;;;;;;;;;;;;;1.47;97.95;98200.88;5520647;23;19934;-84
2021/12/05 04:18:42;;;;;;;;;;;;;;;1.36;96.96;98204.69;4992487;28;19926;-84
2021/12/05 04:21:07;;;;;;;;;;;;;;;1.18;96.23;98200.91;4990348;28;19917;-84
2021/12/05 04:23:33;;;;;;;;;;;;;;;1.45;98.11;98204.41;4992335;28;20379;-85
2021/12/05 04:25:58;;;;;;;;;;;;;;;1.79;100.00;98202.50;4992505;28;20458;-85
2021/12/05 04:28:24;;;;;;;;;;;;;;;2.20;100.00;98202.84;4992077;28;20277;-86
2021/12/05 04:30:50;;;;;;;;;;;;;;;2.27;100.00;98206.97;4989945;28;19922;-84
2021/12/05 04:33:15;;;;;;;;;;;;;;;2.30;100.00;98204.25;4992322;28;19918;-86
2021/12/05 04:35:40;;;;;;;;;;;;;;;2.44;100.00;98200.28;4992235;28;20361;-85
2021/12/05 04:38:06;;;;;;;;;;;;;;;2.41;100.00;98197.78;4992096;28;19918;-84
2021/12/05 04:40:33;;;;;;;;;;;;;;;2.49;100.00;98193.13;4992155;28;19922;-85
2021/12/05 04:42:58;;;;;;;;;;;;;;;2.42;100.00;98196.88;4992253;28;19918;-85
2021/12/05 04:45:26;;;;;;;;;;;;;;;2.43;100.00;98196.00;4992456;28;20127;-85
2021/12/05 04:47:52;;;;;;;;;;;;;;;2.44;100.00;98192.44;4995887;28;19922;-85
2021/12/05 04:50:18;;;;;;;;;;;;;;;2.43;100.00;98185.53;4995836;28;20012;-85
2021/12/05 04:52:43;;;;;;;;;;;;;;;2.43;100.00;98189.00;4995806;28;19957;-86
2021/12/05 04:55:09;;;;;;;;;;;;;;;2.45;100.00;98192.41;4995826;28;20418;-85
2021/12/05 04:57:35;;;;;;;;;;;;;;;2.49;100.00;98187.91;4994270;28;19918;-85
2021/12/05 05:00:01;;;;;;;;;;;;;;;2.45;100.00;98187.16;4994324;28;19918;-85
2021/12/05 05:02:26;;;;;;;;;;;;;;;2.50;100.00;98179.16;4995505;28;19922;-85
2021/12/05 05:04:52;;;;;;;;;;;;;;;2.56;100.00;98178.94;4994358;28;20016;-85
2021/12/05 05:07:24;;;;;;;;;;;;;;;2.57;100.00;98180.66;4994139;28;19918;-85
2021/12/05 05:09:50;;;;;;;;;;;;;;;2.60;100.00;98175.31;4995811;28;19914;-86
2021/12/05 05:12:16;;;;;;;;;;;;;;;2.53;100.00;98174.66;4995197;28;19973;-86
2021/12/05 05:14:41;;;;;;;;;;;;;;;2.57;100.00;98171.94;4995453;28;20384;-85
2021/12/05 05:17:07;;;;;;;;;;;;;;;2.60;100.00;98166.59;4993809;28;19922;-85
2021/12/05 05:19:38;;;;;;;;;;;;;;;2.63;100.00;98169.13;4995207;28;19918;-86
2021/12/05 05:23:18;;;;;;;;;;;;;;;2.57;99.46;98161.47;4994753;28;19925;-86
2021/12/05 05:25:26;;;;;;;;;;;;;;;2.57;98.11;98172.81;4990220;28;19917;-84
2021/12/05 05:30:49;;;;;;;;;;;;;;;2.62;95.48;98173.50;4993480;28;19924;-84
2021/12/05 05:51:42;;;;;;;;;;;;;;;2.52;89.95;98172.09;4994676;28;19921;-84
2021/12/05 05:54:08;;;;;;;;;;;;;;;2.56;89.45;98171.09;4994584;28;19918;-84
2021/12/05 05:56:34;;;;;;;;;;;;;;;2.53;89.51;98174.66;4993690;28;20316;-83
2021/12/05 05:59:14;;;;;;;;;;;;;;;2.63;88.96;98170.00;4994482;28;19944;-86
2021/12/05 06:02:03;;;;;;;;;;;;;;;2.57;88.33;98164.97;4991609;28;19921;-86
2021/12/05 06:04:24;;;;;;;;;;;;;;;2.58;88.02;98166.66;4994094;28;20360;-86
2021/12/05 06:06:50;;;;;;;;;;;;;;;2.61;87.92;98168.31;4994455;28;19928;-84
2021/12/05 06:09:15;;;;;;;;;;;;;;;2.58;88.06;98161.44;4994527;28;19973;-86
2021/12/05 06:11:40;;;;;;;;;;;;;;;2.57;87.38;98162.34;4994424;28;20360;-87
2021/12/05 06:14:05;;;;;;;;;;;;;;;2.55;87.35;98164.16;4993529;28;19965;-87
2021/12/05 13:55:53;;;;;;;;;;;;;;;4.90;100.00;98244.75;5114161;23;19972;-84
2021/12/05 13:58:24;;;;;;;;;;;;;;;4.97;100.00;98247.94;4987069;28;19965;-85
2021/12/05 14:01:01;;;;;;;;;;;;;;;5.02;100.00;98251.19;4986250;28;20013;-86
2021/12/05 14:03:47;;;;;;;;;;;;;;;5.12;100.00;98249.00;4994922;28;19928;-85
2021/12/05 14:06:28;;;;;;;;;;;;;;;5.17;100.00;98253.16;4986377;28;19921;-86
2021/12/05 14:08:56;;;;;;;;;;;;;;;5.20;100.00;98253.00;4985007;28;19925;-87
2021/12/05 14:11:22;;;;;;;;;;;;;;;5.27;100.00;98245.69;4986354;28;20408;-86
2021/12/05 14:13:47;;;;;;;;;;;;;;;5.29;100.00;98259.59;4987370;28;19940;-85
2021/12/05 14:16:12;;;;;;;;;;;;;;;5.35;100.00;98263.75;4986240;28;19927;-86
2021/12/05 14:18:37;;;;;;;;;;;;;;;5.41;100.00;98252.94;4985753;28;20404;-85
2021/12/05 14:21:18;;;;;;;;;;;;;;;5.46;100.00;98258.84;5004060;28;19922;-85
2021/12/05 14:23:50;;;;;;;;;;;;;;;5.51;100.00;98263.88;5002238;28;20356;-85
2021/12/05 14:26:16;;;;;;;;;;;;;;;5.09;100.00;98268.41;5003955;28;19921;-84
2021/12/05 14:28:42;;;;;;;;;;;;;;;4.19;100.00;98272.19;4985801;28;19918;-84
2021/12/05 14:31:07;;;;;;;;;;;;;;;3.73;100.00;98284.50;5003049;28;19921;-84
2021/12/05 14:34:05;;;;;;;;;;;;;;;3.63;100.00;98277.94;5004054;28;19964;-85
2021/12/05 14:36:32;;;;;;;;;;;;;;;3.48;100.00;98284.63;4949566;28;20384;-84
2021/12/05 14:39:08;;;;;;;;;;;;;;;3.48;100.00;98281.13;5001971;28;20021;-84
2021/12/05 14:41:33;;;;;;;;;;;;;;;3.35;100.00;98289.47;5003737;28;19918;-84
2021/12/05 14:43:59;;;;;;;;;;;;;;;3.26;98.96;98295.88;5003348;28;19918;-85
2021/12/05 14:46:25;;;;;;;;;;;;;;;3.30;97.65;98296.59;4986204;28;20297;-85
2021/12/05 14:48:57;;;;;;;;;;;;;;;3.21;96.23;98302.22;5003172;28;20373;-86
2021/12/05 14:51:33;;;;;;;;;;;;;;;3.15;94.89;98297.19;5003705;28;19921;-85
2021/12/05 14:53:59;;;;;;;;;;;;;;;3.11;94.03;98303.44;5001748;28;19936;-85
2021/12/05 14:56:32;;;;;;;;;;;;;;;3.07;93.16;98300.94;5003442;28;20005;-85
2021/12/05 14:59:05;;;;;;;;;;;;;;;3.04;92.35;98306.28;5002784;28;19944;-84
2021/12/05 15:01:31;;;;;;;;;;;;;;;2.94;91.43;98310.13;5003128;28;19925;-85
2021/12/05 15:03:56;;;;;;;;;;;;;;;2.93;90.79;98324.13;5003404;28;19929;-84
2021/12/05 15:06:29;;;;;;;;;;;;;;;2.85;90.66;98326.16;5002883;28;19918;-83
2021/12/05 15:08:54;;;;;;;;;;;;;;;2.94;90.11;98331.06;5001195;28;20012;-84
2021/12/05 15:11:19;;;;;;;;;;;;;;;2.81;89.37;98328.03;5002547;28;20016;-85
2021/12/05 15:13:45;;;;;;;;;;;;;;;2.85;89.34;98332.22;5003220;28;19918;-86
2021/12/05 15:16:10;;;;;;;;;;;;;;;2.80;88.62;98331.53;5002904;28;20348;-83
2021/12/05 15:18:39;;;;;;;;;;;;;;;2.76;88.42;98342.16;5002460;28;19922;-84
2021/12/05 15:21:04;;;;;;;;;;;;;;;2.70;87.99;98338.84;5002784;28;19970;-83
2021/12/05 15:23:30;;;;;;;;;;;;;;;2.78;88.02;98348.22;5001945;28;20317;-85
2021/12/05 15:25:59;;;;;;;;;;;;;;;2.63;87.36;98353.06;5002448;28;19925;-86
2021/12/05 15:28:24;;;;;;;;;;;;;;;2.67;87.41;98356.41;5003256;28;19960;-83
2021/12/05 15:30:49;;;;;;;;;;;;;;;2.65;87.16;98356.47;5002502;28;20399;-84
2021/12/05 15:33:22;;;;;;;;;;;;;;;2.62;86.70;98358.34;5002589;28;20296;-85
2021/12/05 15:35:49;;;;;;;;;;;;;;;2.53;86.60;98362.09;5002467;28;20394;-85
2021/12/05 15:38:16;;;;;;;;;;;;;;;2.51;86.38;98366.53;5001103;28;19918;-86
2021/12/05 15:40:43;;;;;;;;;;;;;;;2.52;86.11;98370.84;5000840;28;20289;-86
2021/12/05 15:43:10;;;;;;;;;;;;;;;2.48;86.08;98369.25;4984475;28;19918;-86
2021/12/05 15:45:36;;;;;;;;;;;;;;;2.50;85.92;98372.66;5002392;28;19914;-86
2021/12/05 15:48:01;;;;;;;;;;;;;;;2.46;85.97;98379.75;4984680;28;19925;-86
2021/12/05 15:50:28;;;;;;;;;;;;;;;2.39;85.32;98380.00;5002868;28;19913;-85
2021/12/05 15:52:58;;;;;;;;;;;;;;;2.34;85.29;98388.81;5002442;28;20003;-85
2021/12/05 15:55:33;;;;;;;;;;;;;;;2.33;85.08;98391.47;5000794;28;20292;-83
2021/12/05 15:58:08;;;;;;;;;;;;;;;2.36;85.05;98394.88;4992771;28;19918;-83
2021/12/05 16:00:45;;;;;;;;;;;;;;;2.30;84.71;98408.13;4992298;28;19929;-85
2021/12/05 16:03:13;;;;;;;;;;;;;;;2.40;84.34;98421.78;5002664;28;19918;-86
2021/12/05 16:05:40;;;;;;;;;;;;;;;2.30;84.23;98413.38;5001613;28;19943;-86
2021/12/05 16:08:07;;;;;;;;;;;;;;;2.25;84.00;98420.50;5002052;28;19918;-85
2021/12/05 16:10:34;;;;;;;;;;;;;;;2.18;84.68;98419.81;5001024;28;19926;-84
2021/12/05 16:13:07;;;;;;;;;;;;;;;2.13;84.64;98426.09;5001907;28;19922;-86
2021/12/05 16:15:32;;;;;;;;;;;;;;;2.24;84.49;98433.63;5001086;28;19925;-83
2021/12/05 16:17:59;;;;;;;;;;;;;;;2.24;84.42;98437.06;4984369;28;19922;-85
2021/12/05 16:20:27;;;;;;;;;;;;;;;2.20;84.24;98440.69;4984322;28;20373;-84
2021/12/05 16:22:57;;;;;;;;;;;;;;;2.10;84.30;98447.09;4984383;28;20444;-84
2021/12/05 16:25:23;;;;;;;;;;;;;;;2.13;84.27;98447.00;4982974;28;20004;-85
2021/12/05 16:27:56;;;;;;;;;;;;;;;2.24;83.78;98455.38;5002101;28;20449;-83
2021/12/05 16:30:21;;;;;;;;;;;;;;;2.11;83.65;98454.88;4984056;28;19952;-84
2021/12/05 16:32:46;;;;;;;;;;;;;;;2.09;83.88;98458.44;5001952;28;19957;-84
2021/12/05 16:35:23;;;;;;;;;;;;;;;2.10;83.83;98454.94;5002263;28;20351;-85
2021/12/05 16:37:48;;;;;;;;;;;;;;;2.12;83.78;98455.72;5001851;28;20364;-85
2021/12/05 16:40:13;;;;;;;;;;;;;;;2.04;83.49;98457.72;5000814;28;19925;-84
2021/12/05 16:42:39;;;;;;;;;;;;;;;2.02;83.57;98465.59;5005471;28;20285;-83
2021/12/05 16:45:05;;;;;;;;;;;;;;;2.08;83.74;98465.44;5005370;28;19922;-83
2021/12/05 16:47:31;;;;;;;;;;;;;;;2.00;83.49;98463.03;4988607;28;19918;-84
2021/12/05 16:49:57;;;;;;;;;;;;;;;2.02;83.49;98470.00;5005426;28;19921;-85
2021/12/05 16:52:24;;;;;;;;;;;;;;;2.07;83.47;98470.69;4987584;28;20229;-84
2021/12/05 16:54:55;;;;;;;;;;;;;;;1.98;83.27;98474.44;4986384;28;19962;-84
2021/12/05 16:57:28;;;;;;;;;;;;;;;1.99;83.06;98478.75;5005806;28;19924;-83
2021/12/05 16:59:55;;;;;;;;;;;;;;;2.03;83.19;98482.13;4987341;28;19918;-84
2021/12/05 17:02:28;;;;;;;;;;;;;;;2.01;82.89;98487.44;5005336;28;20463;-83
2021/12/05 17:05:04;;;;;;;;;;;;;;;1.99;83.18;98487.47;5005396;28;19944;-83
2021/12/05 17:07:56;;;;;;;;;;;;;;;1.94;82.83;98491.09;5005500;28;19924;-83
2021/12/05 17:10:25;;;;;;;;;;;;;;;1.97;82.92;98502.31;5003993;28;19918;-84
2021/12/05 17:12:55;;;;;;;;;;;;;;;1.94;82.68;98501.56;5005265;28;19917;-84
2021/12/05 17:15:28;;;;;;;;;;;;;;;1.94;82.36;98502.41;5005036;28;19921;-85
2021/12/05 17:18:02;;;;;;;;;;;;;;;1.84;82.63;98506.19;4979350;28;20365;-83
2021/12/05 17:20:27;;;;;;;;;;;;;;;1.90;82.64;98508.63;4987258;28;19921;-85
2021/12/05 17:23:11;;;;;;;;;;;;;;;1.93;82.83;98511.16;5005170;28;19918;-85
2021/12/05 17:25:40;;;;;;;;;;;;;;;1.86;82.85;98513.97;5004035;28;20368;-85
2021/12/05 17:28:10;;;;;;;;;;;;;;;1.81;82.55;98514.94;5004670;28;20347;-85
2021/12/05 17:30:48;;;;;;;;;;;;;;;1.91;82.64;98517.31;5004497;28;19929;-86
2021/12/05 17:33:23;;;;;;;;;;;;;;;1.88;82.68;98512.16;5004730;28;19944;-86
2021/12/05 17:35:49;;;;;;;;;;;;;;;1.96;82.05;98518.91;5004556;28;19924;-86
2021/12/05 17:38:14;;;;;;;;;;;;;;;1.96;82.29;98521.53;5004788;28;20016;-85
2021/12/05 17:40:39;;;;;;;;;;;;;;;1.89;81.83;98521.72;5003541;28;19918;-85
2021/12/05 17:43:04;;;;;;;;;;;;;;;1.87;82.18;98527.00;5004563;28;19945;-85
2021/12/05 17:45:37;;;;;;;;;;;;;;;1.83;82.29;98525.34;4986682;28;19918;-85
2021/12/05 17:48:07;;;;;;;;;;;;;;;1.90;81.95;98520.81;5004628;28;19922;-85
2021/12/05 17:50:32;;;;;;;;;;;;;;;1.86;81.98;98527.03;5004480;28;19917;-85
2021/12/05 17:52:58;;;;;;;;;;;;;;;1.87;81.92;98529.59;5003618;28;19968;-85
2021/12/05 17:55:29;;;;;;;;;;;;;;;1.83;81.62;98533.19;5002835;28;20021;-85
2021/12/05 17:58:01;;;;;;;;;;;;;;;1.83;81.28;98543.63;5004378;28;19964;-86
2021/12/05 18:02:55;;;;;;;;;;;;;;;1.85;81.35;98534.03;5004449;28;19922;-86
2021/12/05 18:05:23;;;;;;;;;;;;;;;1.88;80.85;98536.53;5003964;28;19964;-86
2021/12/05 18:07:50;;;;;;;;;;;;;;;1.86;80.54;98546.16;5004627;28;19925;-84
2021/12/05 18:10:16;;;;;;;;;;;;;;;1.83;80.41;98543.63;5010165;28;20012;-86
2021/12/05 18:12:43;;;;;;;;;;;;;;;1.82;80.59;98539.34;5003963;28;19944;-86
2021/12/05 18:15:13;;;;;;;;;;;;;;;1.81;81.00;98550.66;5003587;28;19922;-85
2021/12/05 18:17:40;;;;;;;;;;;;;;;1.89;80.45;98553.94;5003567;28;19918;-84
2021/12/05 18:20:06;;;;;;;;;;;;;;;1.89;79.95;98559.16;5003878;28;19918;-84
2021/12/05 18:22:32;;;;;;;;;;;;;;;1.89;79.53;98551.31;5003889;28;19921;-86
2021/12/05 18:24:58;;;;;;;;;;;;;;;1.90;80.05;98555.66;4984900;28;20361;-86
2021/12/05 18:27:23;;;;;;;;;;;;;;;1.90;80.16;98555.66;5003489;28;19960;-84
2021/12/05 18:29:48;;;;;;;;;;;;;;;1.92;80.20;98564.28;5003723;28;20399;-85
2021/12/05 18:32:16;;;;;;;;;;;;;;;1.90;80.13;98560.88;5003787;28;19918;-84
2021/12/05 18:34:42;;;;;;;;;;;;;;;1.91;80.24;98557.34;5003422;28;19918;-85
2021/12/05 18:37:10;;;;;;;;;;;;;;;1.93;80.10;98560.78;5003932;28;19925;-84
2021/12/05 18:39:38;;;;;;;;;;;;;;;1.92;79.93;98563.44;5002356;28;20383;-83
2021/12/05 18:42:05;;;;;;;;;;;;;;;1.95;80.15;98566.81;5003269;28;20340;-84
2021/12/05 18:44:36;;;;;;;;;;;;;;;1.99;79.99;98575.44;5002938;28;19918;-85
2021/12/05 18:47:01;;;;;;;;;;;;;;;1.99;80.08;98576.31;4985569;28;19917;-84
2021/12/05 18:49:28;;;;;;;;;;;;;;;1.97;79.78;98587.69;5003323;28;19921;-85
2021/12/05 18:51:54;;;;;;;;;;;;;;;1.93;79.85;98586.91;4985773;28;20029;-87
2021/12/05 18:54:19;;;;;;;;;;;;;;;1.95;79.89;98594.72;5001847;28;20412;-85
2021/12/05 18:56:45;;;;;;;;;;;;;;;1.96;79.71;98593.81;5003267;28;19921;-85
2021/12/05 18:59:10;;;;;;;;;;;;;;;1.95;79.67;98599.94;4985263;28;20002;-83
2021/12/05 19:04:55;;;;;;;;;;;;;;;1.97;79.51;98614.66;5003040;28;19930;-85
2021/12/05 19:07:17;;;;;;;;;;;;;;;1.97;79.38;98619.03;4998586;28;20361;-84
2021/12/05 19:12:15;;;;;;;;;;;;;;;1.95;79.44;98626.06;5002900;28;19984;-86
2021/12/05 19:14:42;;;;;;;;;;;;;;;1.95;79.46;98629.53;5002932;28;20012;-84
2021/12/05 19:17:08;;;;;;;;;;;;;;;1.92;79.35;98627.00;4984437;28;19925;-84
2021/12/05 19:19:33;;;;;;;;;;;;;;;1.96;79.38;98633.88;5002379;28;19980;-85
2021/12/05 19:21:59;;;;;;;;;;;;;;;1.92;79.09;98631.38;4984594;28;20395;-84
2021/12/05 19:24:25;;;;;;;;;;;;;;;1.93;79.18;98635.69;4982344;28;19921;-86
2021/12/05 19:26:51;;;;;;;;;;;;;;;1.95;78.99;98639.97;4986867;28;20008;-84
2021/12/05 19:29:19;;;;;;;;;;;;;;;1.94;78.95;98643.47;5002055;28;20020;-84
2021/12/05 19:31:45;;;;;;;;;;;;;;;1.93;78.90;98635.69;4986388;28;19921;-85
2021/12/05 19:34:10;;;;;;;;;;;;;;;1.97;78.84;98650.41;4984582;28;20395;-84
2021/12/05 19:36:36;;;;;;;;;;;;;;;1.93;78.83;98647.00;5002575;28;19929;-85
2021/12/05 19:39:01;;;;;;;;;;;;;;;1.93;78.66;98649.63;4982217;28;19917;-85
2021/12/05 19:41:27;;;;;;;;;;;;;;;1.93;78.71;98649.63;5001467;28;20304;-85
2021/12/05 19:43:52;;;;;;;;;;;;;;;1.94;78.80;98650.47;4985756;28;19921;-85
2021/12/05 19:46:20;;;;;;;;;;;;;;;1.94;78.66;98656.53;4984341;28;19932;-85
2021/12/05 19:48:46;;;;;;;;;;;;;;;1.94;78.58;98651.31;4984688;28;19934;-85
2021/12/05 19:51:12;;;;;;;;;;;;;;;1.92;78.49;98660.97;4997630;28;20266;-84
2021/12/05 19:53:39;;;;;;;;;;;;;;;1.95;78.52;98660.88;5001532;28;19925;-84
2021/12/05 19:56:06;;;;;;;;;;;;;;;1.92;78.33;98665.34;5001297;28;19976;-84
2021/12/05 19:58:32;;;;;;;;;;;;;;;1.92;78.40;98671.41;4984418;28;19933;-84
2021/12/05 20:00:57;;;;;;;;;;;;;;;1.90;78.21;98669.72;4984626;28;19921;-85
2021/12/05 20:03:22;;;;;;;;;;;;;;;1.91;78.20;98669.69;4985046;28;19929;-84
2021/12/05 20:05:48;;;;;;;;;;;;;;;1.94;78.00;98668.75;4984641;28;20495;-84
2021/12/05 20:08:14;;;;;;;;;;;;;;;1.98;77.89;98671.25;4983409;28;19944;-85
2021/12/05 20:10:40;;;;;;;;;;;;;;;1.96;78.17;98675.69;4983706;28;19933;-85
2021/12/05 20:13:06;;;;;;;;;;;;;;;1.94;77.90;98677.44;4984765;28;20353;-86
2021/12/05 20:15:31;;;;;;;;;;;;;;;1.98;77.76;98675.63;4984040;28;19944;-83
2021/12/05 20:18:00;;;;;;;;;;;;;;;2.02;77.48;98679.88;5006785;28;20008;-86
2021/12/05 20:20:26;;;;;;;;;;;;;;;1.99;77.13;98680.81;4988300;28;19921;-84
2021/12/05 20:22:52;;;;;;;;;;;;;;;2.06;77.39;98689.34;4988183;28;19925;-84
2021/12/05 20:25:19;;;;;;;;;;;;;;;2.17;77.26;98691.66;4986971;28;20395;-85
2021/12/05 20:27:44;;;;;;;;;;;;;;;2.19;77.03;98697.75;4988264;28;19999;-86
2021/12/05 20:30:12;;;;;;;;;;;;;;;2.17;77.08;98704.72;5006675;28;20025;-85
2021/12/05 20:32:37;;;;;;;;;;;;;;;2.11;77.25;98705.78;4988734;28;19942;-85
2021/12/05 20:35:07;;;;;;;;;;;;;;;2.16;77.27;98695.19;5005906;28;20029;-85
2021/12/05 20:37:32;;;;;;;;;;;;;;;2.29;77.06;98701.81;4988505;28;20025;-85
2021/12/05 20:39:57;;;;;;;;;;;;;;;2.22;76.94;98702.00;4987407;28;20392;-84
2021/12/05 20:42:23;;;;;;;;;;;;;;;2.24;77.27;98698.47;4988207;28;19953;-86
2021/12/05 20:44:48;;;;;;;;;;;;;;;2.32;77.16;98699.13;5006640;28;19925;-85
2021/12/05 20:47:13;;;;;;;;;;;;;;;2.27;76.54;98702.78;5006428;28;19925;-84
2021/12/05 20:49:39;;;;;;;;;;;;;;;2.28;76.35;98704.47;5005108;28;19962;-84
2021/12/05 20:52:04;;;;;;;;;;;;;;;2.33;76.34;98713.03;4987843;28;20369;-84
2021/12/05 20:54:35;;;;;;;;;;;;;;;2.34;76.42;98713.00;4985731;28;19921;-86
2021/12/05 20:57:10;;;;;;;;;;;;;;;2.36;76.22;98711.22;4987102;28;19921;-85
2021/12/05 20:59:36;;;;;;;;;;;;;;;2.45;76.45;98722.31;5005031;28;19918;-86
2021/12/05 21:02:01;;;;;;;;;;;;;;;2.33;75.92;98726.09;5005574;28;19987;-85
2021/12/05 21:04:27;;;;;;;;;;;;;;;2.40;76.06;98726.81;5005001;28;19921;-85
2021/12/05 21:06:52;;;;;;;;;;;;;;;2.41;75.78;98734.63;5005599;28;19925;-85
2021/12/05 21:09:17;;;;;;;;;;;;;;;2.40;76.00;98732.91;5004155;28;19918;-85
2021/12/05 21:11:43;;;;;;;;;;;;;;;2.46;76.08;98737.13;4979777;28;19928;-86
2021/12/05 21:14:08;;;;;;;;;;;;;;;2.53;76.35;98743.91;4987034;28;19929;-86
2021/12/05 21:16:33;;;;;;;;;;;;;;;2.44;75.76;98747.63;5004677;28;19921;-85
2021/12/05 21:18:59;;;;;;;;;;;;;;;2.42;75.57;98754.63;4986941;28;20416;-84
2021/12/05 21:21:25;;;;;;;;;;;;;;;2.47;75.74;98760.63;4987574;28;20243;-84
2021/12/05 21:23:52;;;;;;;;;;;;;;;2.41;75.65;98766.00;4987385;28;20001;-85
2021/12/05 21:26:18;;;;;;;;;;;;;;;2.39;75.71;98762.56;4986751;28;19964;-85
2021/12/05 21:28:43;;;;;;;;;;;;;;;2.44;75.66;98765.94;5004408;28;19960;-85
2021/12/05 21:31:10;;;;;;;;;;;;;;;2.38;75.68;98766.09;4987023;28;20368;-85
2021/12/05 21:33:35;;;;;;;;;;;;;;;2.42;75.95;98767.69;4985050;28;19932;-84
2021/12/05 21:36:03;;;;;;;;;;;;;;;2.42;76.04;98767.69;4987031;28;20300;-83
2021/12/05 21:38:28;;;;;;;;;;;;;;;2.45;75.94;98780.69;5004434;28;20272;-85
2021/12/05 21:40:55;;;;;;;;;;;;;;;2.47;76.12;98780.66;5003232;28;19917;-85
2021/12/05 21:43:22;;;;;;;;;;;;;;;2.52;75.96;98778.78;4986466;28;19968;-84
2021/12/05 21:45:48;;;;;;;;;;;;;;;2.41;76.53;98781.69;4987434;28;20403;-84
2021/12/05 21:48:13;;;;;;;;;;;;;;;2.41;76.42;98786.03;5003898;28;19957;-85
2021/12/05 21:50:39;;;;;;;;;;;;;;;2.47;76.47;98788.50;5005208;28;20336;-85
2021/12/05 21:53:07;;;;;;;;;;;;;;;2.45;76.47;98792.94;5004157;28;20381;-85
2021/12/05 21:55:32;;;;;;;;;;;;;;;2.45;76.30;98790.31;5001618;28;19926;-85
2021/12/05 21:57:58;;;;;;;;;;;;;;;2.42;76.36;98796.47;4986771;28;20372;-84
2021/12/05 22:00:25;;;;;;;;;;;;;;;2.47;76.37;98797.22;5004463;28;19918;-85
2021/12/05 22:02:51;;;;;;;;;;;;;;;2.49;76.10;98805.88;4985253;28;19922;-85
2021/12/05 22:05:16;;;;;;;;;;;;;;;2.53;76.24;98804.03;4988325;28;19932;-84
2021/12/05 22:07:41;;;;;;;;;;;;;;;2.52;76.24;98816.28;4986515;28;19924;-85
2021/12/05 22:10:11;;;;;;;;;;;;;;;2.50;76.15;98812.81;4985812;28;19940;-86
2021/12/05 22:12:38;;;;;;;;;;;;;;;2.53;76.41;98809.28;4987296;28;19921;-85
2021/12/05 22:15:04;;;;;;;;;;;;;;;2.61;76.36;98809.94;5004398;28;19927;-84
2021/12/05 22:17:29;;;;;;;;;;;;;;;2.60;76.23;98812.59;4985444;28;20028;-84
2021/12/05 22:19:56;;;;;;;;;;;;;;;2.64;76.41;98820.31;4987076;28;20021;-85
2021/12/05 22:22:22;;;;;;;;;;;;;;;2.67;76.56;98832.47;5004122;28;19925;-85
2021/12/05 22:24:47;;;;;;;;;;;;;;;2.66;76.40;98838.59;4981544;28;19929;-84
2021/12/05 22:27:13;;;;;;;;;;;;;;;2.65;76.48;98842.97;4986806;28;19929;-84
2021/12/05 22:29:41;;;;;;;;;;;;;;;2.67;76.54;98841.16;4986464;28;20767;-84
2021/12/05 22:32:07;;;;;;;;;;;;;;;2.69;76.45;98844.59;4985904;28;19925;-85
2021/12/05 22:34:32;;;;;;;;;;;;;;;2.67;76.44;98843.78;4986278;28;19924;-86
2021/12/05 22:36:58;;;;;;;;;;;;;;;2.71;76.44;98848.06;4983228;28;20292;-84
2021/12/05 22:39:23;;;;;;;;;;;;;;;2.75;76.33;98858.44;4983969;28;19917;-84
2021/12/05 22:41:48;;;;;;;;;;;;;;;2.75;76.34;98856.66;5003127;28;19965;-84
2021/12/05 22:44:14;;;;;;;;;;;;;;;2.80;76.64;98856.56;4986900;28;20369;-85
2021/12/05 22:46:39;;;;;;;;;;;;;;;2.79;76.55;98860.91;5002981;28;20433;-85
2021/12/05 22:49:04;;;;;;;;;;;;;;;2.77;76.52;98870.56;4985388;28;19922;-85
2021/12/05 22:51:31;;;;;;;;;;;;;;;2.79;76.39;98871.38;5004241;28;19957;-84
2021/12/05 22:53:56;;;;;;;;;;;;;;;2.87;76.56;98879.03;4983640;28;20052;-85
2021/12/05 22:56:21;;;;;;;;;;;;;;;2.85;76.50;98876.44;5003450;28;20024;-84
2021/12/05 22:58:46;;;;;;;;;;;;;;;2.95;76.55;98873.59;4986288;28;19929;-85
